Aérodrome :
LOGIN :

S'inscrire | Disclaimer

   EN    FR    IT 

 










Légende :    VFR   VFR Marginal   IFR   IFR Intensif   IFR Très Intensif
Visi : 
Plafond : 
>= 8 km
>= 3000ft
5 à 8 km
1000 à 3000 ft
1500m à 5 km
500 à 1000 ft
800 à 1500m
200 à 500 ft
< 800m
< 200 ft
Symboles :   Orages  Brouillard  Fortes neiges  Fortes précipitations  Vent > 20 kt
SIGMETs :   Divers  Orages  Givrage  Turbulence  Onde Orograph.  Cendres Volcan.







- Altitude de l'aérodrome : 28 ft
- Code IATA : SOZ
- Voir les cartes d'approche


LFKS - Solenzara

DERNIER METAR :
  • 221400Z AUTO VRB03KT 9999 BKN025/// BKN038/// ///TCU 10/05 Q1004

METARs EXPIRÉS :
  • 221330Z AUTO 07006KT 9999 SCT035/// BKN041/// OVC050/// ///TCU 10/05 Q1004
  • 221300Z AUTO 07006KT 030V090 9999 BKN024 BKN033 OVC040 10/05 Q1005
  • 221230Z AUTO 08006KT 9999 FEW034 BKN042 OVC062 10/05 Q1005
  • 221200Z AUTO 07005KT 020V140 9999 FEW022 BKN066 11/05 Q1006
  • 221130Z AUTO 08005KT 020V120 9999 BKN068 11/05 Q1006

TAF TAF LFKS
Valide du 22 à 09h jusqu'au 23 à 09h UTC


220800Z 2209/2309 12008KT 9999 SCT055
BECMG 2218/2220 27010KT BKN040
Pas de NOTAMs connus pour ce terrain.



MET'MAP, la Météo Aéronautique d'un coup d'oeil ! - Copyright ORBIFLY Décembre 2007 - Disclaimer

ORBIFLY MET'MAP TEAM :

Programmation & Développement : Alexandra Zaïnal
Conception & Développement : Baudouin d'Aumeries
Co-Programmation & Développement : Marc-Olivier Méhu
Soutien technique & logistique : Manuel Goepfert

Contact : metmap@orbifly.com




SOURCES & CREDITS :

   NOAA